Time;durP1;ratioP1;P1;durP2;ratioP2;P2;SDS_P1;SDS_P2;PMS_P1;PMS_P2;Temp;Humidity;BMP_temperature;BMP_pressure;BME280_temperature;BME280_humidity;BME280_pressure;Samples;Min_cycle;Max_cycle;Signal;HPM_P1;HPM_P2
2021/11/13 00:01:32;;;;;;;30.40;17.40;;;6.70;55.10;;;;;;5040892;28;20408;-78
2021/11/13 00:03:58;;;;;;;27.90;15.63;;;6.80;55.00;;;;;;5029971;28;20407;-83
2021/11/13 00:06:24;;;;;;;28.13;16.70;;;6.80;54.80;;;;;;5045342;28;20399;-79
2021/11/13 00:08:50;;;;;;;28.05;16.83;;;6.90;54.00;;;;;;5043912;28;20452;-81
2021/11/13 00:11:16;;;;;;;27.10;16.73;;;6.90;53.70;;;;;;5047775;28;20387;-77
2021/11/13 00:13:42;;;;;;;28.88;16.15;;;7.00;53.00;;;;;;5057214;28;20752;-77
2021/11/13 00:16:08;;;;;;;25.50;16.08;;;6.90;52.80;;;;;;5055416;28;20431;-81
2021/11/13 00:18:35;;;;;;;26.70;16.00;;;6.90;52.70;;;;;;5039959;28;20398;-81
2021/11/13 00:21:05;;;;;;;26.90;15.80;;;6.90;52.00;;;;;;5040970;28;20482;-79
2021/11/13 00:23:31;;;;;;;26.20;16.05;;;7.00;51.70;;;;;;5029498;28;20397;-81
2021/11/13 00:25:58;;;;;;;26.58;15.27;;;6.90;52.10;;;;;;5034451;28;20391;-81
2021/11/13 00:28:25;;;;;;;29.48;16.13;;;6.90;52.80;;;;;;5041083;28;20834;-81
2021/11/13 00:30:51;;;;;;;27.20;15.32;;;6.90;51.30;;;;;;5043305;28;20529;-78
2021/11/13 00:33:17;;;;;;;26.70;15.68;;;6.90;51.80;;;;;;5040115;28;20450;-79
2021/11/13 00:35:42;;;;;;;28.92;15.65;;;6.90;51.30;;;;;;5043421;28;20393;-77
2021/11/13 00:38:08;;;;;;;24.17;14.70;;;7.00;51.10;;;;;;5050065;28;20391;-75
2021/11/13 00:40:35;;;;;;;25.70;14.87;;;7.00;50.10;;;;;;5054884;28;20402;-79
2021/11/13 00:43:01;;;;;;;22.67;14.65;;;7.10;49.90;;;;;;5042987;28;20832;-80
2021/11/13 00:45:26;;;;;;;25.77;14.57;;;7.10;49.10;;;;;;5046677;28;20421;-80
2021/11/13 00:47:52;;;;;;;24.30;15.73;;;7.20;48.00;;;;;;5050459;28;20395;-80
2021/11/13 00:50:18;;;;;;;24.83;15.20;;;7.20;48.30;;;;;;5045809;28;20394;-79
2021/11/13 00:52:44;;;;;;;23.65;14.20;;;7.20;48.10;;;;;;5035490;28;20424;-80
2021/11/13 00:55:12;;;;;;;26.83;15.18;;;7.20;47.80;;;;;;5036724;28;20741;-81
2021/11/13 00:57:38;;;;;;;23.70;14.13;;;7.30;47.30;;;;;;5044429;28;20478;-81
2021/11/13 01:00:07;;;;;;;22.13;14.63;;;7.40;47.10;;;;;;5046261;28;20399;-79
2021/11/13 01:02:33;;;;;;;22.30;14.45;;;7.40;46.30;;;;;;5035934;28;20403;-80
2021/11/13 01:04:58;;;;;;;27.30;15.13;;;7.40;46.50;;;;;;5042928;28;20452;-79
2021/11/13 01:07:24;;;;;;;23.10;14.75;;;7.40;46.70;;;;;;5043483;28;20474;-79
2021/11/13 01:09:50;;;;;;;22.90;13.77;;;7.40;46.50;;;;;;5046399;28;20418;-79
2021/11/13 01:12:16;;;;;;;22.85;14.15;;;7.40;46.50;;;;;;5052872;28;20414;-77
2021/11/13 01:14:42;;;;;;;24.02;14.73;;;7.40;47.80;;;;;;5051965;28;20633;-76
2021/11/13 01:17:11;;;;;;;24.73;14.27;;;7.40;47.70;;;;;;5055050;28;20391;-76
2021/11/13 01:19:40;;;;;;;22.27;13.93;;;7.30;47.00;;;;;;5055620;28;20433;-78
2021/11/13 01:22:06;;;;;;;23.08;14.10;;;7.30;47.70;;;;;;5054281;28;20403;-76
2021/11/13 01:24:32;;;;;;;22.02;13.95;;;7.40;46.80;;;;;;5053764;28;20480;-78
2021/11/13 01:26:58;;;;;;;23.65;13.70;;;7.40;46.60;;;;;;5050490;28;20403;-81
2021/11/13 01:29:24;;;;;;;24.52;14.98;;;7.40;46.10;;;;;;5049346;28;20426;-79
2021/11/13 01:31:50;;;;;;;23.77;13.90;;;7.50;46.60;;;;;;5049669;28;20391;-78
2021/11/13 01:34:15;;;;;;;21.83;12.97;;;7.40;46.50;;;;;;5050401;28;20855;-77
2021/11/13 01:36:41;;;;;;;22.00;13.80;;;7.50;45.90;;;;;;5039635;28;20392;-77
2021/11/13 01:39:07;;;;;;;20.88;13.50;;;7.60;45.70;;;;;;5035221;28;20911;-80
2021/11/13 01:41:33;;;;;;;26.33;13.10;;;7.50;45.90;;;;;;5044556;28;20414;-82
2021/11/13 01:43:58;;;;;;;24.45;13.00;;;7.60;46.30;;;;;;5026938;28;20423;-81
2021/11/13 01:46:24;;;;;;;26.03;13.10;;;7.60;45.40;;;;;;5043911;28;20394;-81
2021/11/13 01:48:50;;;;;;;24.80;14.00;;;7.60;45.10;;;;;;5040959;28;20393;-80
2021/11/13 01:51:22;;;;;;;22.67;13.60;;;7.60;45.60;;;;;;5037784;28;20414;-82
2021/11/13 01:53:50;;;;;;;22.23;14.43;;;7.60;45.50;;;;;;5051171;28;20397;-81
2021/11/13 01:56:19;;;;;;;22.60;13.88;;;7.60;46.20;;;;;;5037470;28;20437;-78
2021/11/13 01:58:55;;;;;;;22.25;13.38;;;7.60;46.80;;;;;;5039448;28;20854;-82
2021/11/13 02:01:22;;;;;;;24.90;14.00;;;7.50;47.20;;;;;;5040980;28;20479;-79
2021/11/13 02:03:49;;;;;;;23.17;14.45;;;7.50;47.80;;;;;;5034584;28;20392;-76
2021/11/13 02:06:16;;;;;;;25.25;14.75;;;7.60;48.20;;;;;;5045045;28;20406;-81
2021/11/13 02:08:42;;;;;;;23.15;14.07;;;7.60;48.60;;;;;;5046752;28;20383;-78
2021/11/13 02:11:14;;;;;;;23.17;14.70;;;7.50;49.50;;;;;;5053642;28;20433;-79
2021/11/13 02:13:40;;;;;;;24.67;14.90;;;7.50;50.50;;;;;;5050911;28;20448;-77
2021/11/13 02:16:08;;;;;;;24.25;14.63;;;7.50;51.00;;;;;;5042433;28;20435;-83
2021/11/13 02:18:37;;;;;;;26.95;15.10;;;7.50;51.60;;;;;;5045190;28;20451;-81
2021/11/13 02:21:04;;;;;;;26.30;14.85;;;7.50;51.80;;;;;;5045865;28;20472;-79
2021/11/13 02:23:30;;;;;;;27.52;15.18;;;7.60;51.00;;;;;;5041546;28;20392;-81
2021/11/13 02:25:56;;;;;;;27.45;14.90;;;7.60;50.70;;;;;;5043253;28;20402;-82
2021/11/13 02:28:23;;;;;;;25.80;15.37;;;7.70;49.80;;;;;;5057079;28;20418;-80
2021/11/13 02:30:52;;;;;;;26.70;15.05;;;7.80;49.50;;;;;;5059580;28;20399;-76
2021/11/13 02:33:19;;;;;;;28.55;15.27;;;7.80;49.40;;;;;;5055832;28;20463;-82
2021/11/13 02:35:46;;;;;;;27.73;16.25;;;7.80;50.00;;;;;;5051921;28;20414;-79
2021/11/13 02:38:20;;;;;;;23.65;14.63;;;7.80;50.20;;;;;;5051424;28;20400;-79
2021/11/13 02:40:49;;;;;;;29.20;16.27;;;7.80;50.90;;;;;;5050941;28;20417;-81
2021/11/13 02:43:16;;;;;;;26.33;15.52;;;7.80;52.30;;;;;;5046007;28;20398;-80
2021/11/13 02:45:44;;;;;;;27.80;15.95;;;7.80;53.90;;;;;;5045292;28;20398;-80
2021/11/13 02:48:10;;;;;;;31.73;16.93;;;7.70;56.20;;;;;;5043090;28;20387;-80
2021/11/13 02:50:38;;;;;;;30.27;16.80;;;7.60;58.10;;;;;;5042369;28;20399;-80
2021/11/13 02:53:12;;;;;;;28.77;17.50;;;7.60;59.90;;;;;;5045067;28;20413;-79
2021/11/13 02:55:38;;;;;;;28.77;16.88;;;7.60;62.20;;;;;;5055406;28;20385;-81
2021/11/13 02:58:03;;;;;;;34.80;18.33;;;7.50;64.60;;;;;;5043962;28;20438;-80
2021/11/13 03:00:29;;;;;;;31.40;18.10;;;7.50;66.30;;;;;;5048128;28;20387;-81
2021/11/13 03:02:56;;;;;;;31.20;18.17;;;7.50;66.70;;;;;;5032670;28;20423;-79
2021/11/13 03:05:28;;;;;;;31.45;18.13;;;7.50;68.80;;;;;;5037015;28;20395;-79
2021/11/13 03:07:55;;;;;;;32.83;18.95;;;7.30;73.00;;;;;;5048711;28;20427;-77
2021/11/13 03:10:23;;;;;;;32.80;17.80;;;7.40;74.20;;;;;;5047143;28;20382;-76
2021/11/13 03:12:49;;;;;;;30.05;17.70;;;7.30;75.70;;;;;;5056261;28;20390;-76
2021/11/13 03:15:17;;;;;;;35.20;19.17;;;7.20;77.20;;;;;;5045314;28;20462;-80
2021/11/13 03:17:43;;;;;;;35.20;19.40;;;7.20;79.30;;;;;;5049954;28;20410;-76
2021/11/13 03:20:13;;;;;;;34.97;18.80;;;7.20;80.90;;;;;;5054761;28;20404;-75
2021/11/13 03:22:39;;;;;;;35.20;19.20;;;7.20;80.80;;;;;;5021830;28;20403;-76
2021/11/13 03:25:14;;;;;;;31.38;18.50;;;7.20;82.20;;;;;;5021754;28;20391;-79
2021/11/13 03:27:44;;;;;;;33.10;18.80;;;7.10;82.70;;;;;;5035824;28;21014;-78
2021/11/13 03:30:10;;;;;;;32.70;18.48;;;7.10;83.30;;;;;;5033141;28;20379;-78
2021/11/13 03:32:36;;;;;;;35.03;20.55;;;7.10;85.10;;;;;;5030807;28;20393;-80
2021/11/13 03:35:04;;;;;;;35.53;20.67;;;7.00;86.50;;;;;;5021496;28;20807;-80
2021/11/13 03:37:31;;;;;;;42.53;19.93;;;7.00;88.30;;;;;;5033599;28;20395;-79
2021/11/13 03:39:56;;;;;;;34.85;19.80;;;7.00;87.00;;;;;;5037214;28;20393;-79
2021/11/13 03:42:24;;;;;;;36.10;20.53;;;7.00;88.50;;;;;;5035654;28;20407;-78
2021/11/13 03:44:51;;;;;;;35.80;20.52;;;7.00;89.30;;;;;;5034928;28;20379;-79
2021/11/13 03:47:17;;;;;;;39.38;20.10;;;7.10;89.10;;;;;;5017996;28;20397;-79
2021/11/13 03:49:42;;;;;;;37.27;20.53;;;7.00;89.70;;;;;;5035380;28;20708;-81
2021/11/13 03:52:08;;;;;;;37.70;20.93;;;7.00;91.20;;;;;;5037956;28;20383;-78
2021/11/13 03:54:36;;;;;;;38.67;21.27;;;7.20;90.10;;;;;;5045491;28;20439;-79
2021/11/13 03:57:02;;;;;;;40.13;20.70;;;7.10;90.40;;;;;;5026255;28;20480;-78
2021/11/13 03:59:27;;;;;;;41.30;21.87;;;7.10;91.80;;;;;;5016588;28;20890;-78
2021/11/13 04:01:53;;;;;;;41.57;21.57;;;7.10;92.50;;;;;;5030397;28;20750;-80
2021/11/13 04:04:19;;;;;;;39.43;21.70;;;7.10;93.30;;;;;;5040407;28;20386;-80
2021/11/13 04:06:44;;;;;;;40.13;22.63;;;7.10;92.90;;;;;;5029926;28;20590;-79
2021/11/13 04:09:10;;;;;;;40.50;22.70;;;7.10;94.80;;;;;;5039945;28;20418;-80
2021/11/13 04:11:36;;;;;;;37.58;21.25;;;7.10;95.30;;;;;;5034756;28;20439;-79
2021/11/13 04:14:01;;;;;;;43.00;22.52;;;7.20;95.10;;;;;;5032089;28;20837;-79
2021/11/13 04:16:27;;;;;;;39.80;21.75;;;7.30;93.70;;;;;;5031960;28;20402;-78
2021/11/13 04:18:53;;;;;;;40.95;22.73;;;7.30;93.70;;;;;;5041440;28;20807;-79
2021/11/13 04:21:19;;;;;;;44.65;23.30;;;7.30;94.40;;;;;;5036855;28;20410;-80
2021/11/13 04:23:45;;;;;;;40.58;22.83;;;7.30;95.00;;;;;;5035980;28;20510;-78
2021/11/13 04:26:11;;;;;;;44.97;23.13;;;7.30;95.20;;;;;;5033458;28;20420;-79
2021/11/13 04:28:36;;;;;;;44.40;23.25;;;7.30;96.60;;;;;;5032838;28;20395;-78
2021/11/13 04:31:02;;;;;;;42.20;23.70;;;7.30;96.80;;;;;;5033047;28;20494;-78
2021/11/13 04:33:29;;;;;;;42.37;22.23;;;7.30;98.30;;;;;;5031039;28;20451;-80
2021/11/13 04:36:06;;;;;;;45.40;23.20;;;7.30;99.20;;;;;;5035096;28;20472;-80
2021/11/13 04:38:32;;;;;;;44.58;23.65;;;7.30;99.30;;;;;;5035456;28;20609;-79
2021/11/13 04:41:00;;;;;;;49.78;24.52;;;7.30;99.80;;;;;;5020348;28;20498;-80
2021/11/13 04:43:25;;;;;;;46.87;24.57;;;7.30;99.90;;;;;;5036437;28;20438;-80
2021/11/13 04:45:51;;;;;;;42.55;22.40;;;7.40;99.90;;;;;;5043290;28;20379;-79
2021/11/13 04:48:16;;;;;;;54.58;24.40;;;7.40;99.90;;;;;;5054708;28;20409;-81
2021/11/13 04:50:42;;;;;;;44.65;24.15;;;7.40;99.90;;;;;;5055357;28;20399;-75
2021/11/13 04:53:08;;;;;;;47.28;24.85;;;7.50;99.90;;;;;;5055397;28;20387;-78
2021/11/13 04:55:33;;;;;;;46.20;24.00;;;7.50;99.70;;;;;;5050675;28;20395;-77
2021/11/13 04:58:00;;;;;;;48.00;24.10;;;7.60;97.40;;;;;;5033146;28;20391;-78
2021/11/13 05:00:28;;;;;;;49.00;23.80;;;7.60;98.20;;;;;;5014090;28;20399;-77
2021/11/13 05:02:55;;;;;;;45.67;23.33;;;7.60;96.60;;;;;;5032613;28;20594;-78
2021/11/13 05:05:21;;;;;;;43.97;24.00;;;7.50;97.50;;;;;;5031470;28;20527;-78
2021/11/13 05:07:47;;;;;;;54.53;25.50;;;7.60;98.60;;;;;;5031455;28;20383;-77
2021/11/13 05:10:14;;;;;;;50.67;24.67;;;7.60;96.80;;;;;;5031729;28;20886;-78
2021/11/13 05:12:41;;;;;;;46.63;23.70;;;7.60;97.10;;;;;;5013206;28;20403;-77
2021/11/13 05:15:08;;;;;;;49.83;24.52;;;7.60;98.40;;;;;;5026602;28;20412;-78
2021/11/13 05:17:34;;;;;;;43.30;24.00;;;7.60;97.10;;;;;;5033572;28;20399;-78
2021/11/13 05:20:01;;;;;;;52.08;24.65;;;7.60;96.60;;;;;;5033925;28;20815;-79
2021/11/13 05:22:27;;;;;;;43.63;23.75;;;7.60;95.40;;;;;;5035779;28;20424;-79
2021/11/13 05:24:53;;;;;;;52.22;24.17;;;7.70;95.60;;;;;;5025887;28;20393;-79
2021/11/13 05:27:19;;;;;;;50.00;25.60;;;7.70;96.20;;;;;;5026827;28;20399;-78
2021/11/13 05:29:46;;;;;;;50.67;24.17;;;7.70;96.40;;;;;;5037031;28;20418;-77
2021/11/13 05:32:12;;;;;;;50.08;24.17;;;7.70;97.70;;;;;;5037279;28;20390;-79
2021/11/13 05:34:37;;;;;;;50.03;23.77;;;7.70;98.50;;;;;;5033628;28;20386;-79
2021/11/13 05:37:03;;;;;;;46.47;23.87;;;7.60;99.00;;;;;;5033693;28;20533;-78
2021/11/13 05:39:29;;;;;;;48.40;23.93;;;7.70;99.90;;;;;;5035918;28;20406;-78
2021/11/13 05:41:54;;;;;;;49.90;24.07;;;7.70;99.90;;;;;;5034676;28;20442;-78
2021/11/13 05:44:20;;;;;;;47.23;25.03;;;7.70;99.90;;;;;;5032326;28;20802;-78
2021/11/13 05:46:46;;;;;;;42.97;21.47;;;7.70;99.90;;;;;;5022864;28;20487;-78
2021/11/13 05:49:12;;;;;;;45.90;23.45;;;7.80;99.50;;;;;;5011958;28;20389;-78
2021/11/13 05:51:37;;;;;;;42.08;23.83;;;7.70;99.90;;;;;;5012042;28;20869;-79
2021/11/13 05:54:03;;;;;;;45.03;23.60;;;7.70;99.90;;;;;;5023123;28;20404;-78
2021/11/13 05:56:29;;;;;;;44.63;24.60;;;7.60;99.90;;;;;;5038965;28;20403;-79
2021/11/13 05:58:54;;;;;;;43.78;22.63;;;7.70;99.90;;;;;;5020237;28;20438;-78
2021/11/13 06:01:20;;;;;;;45.17;23.80;;;7.60;99.90;;;;;;5020233;28;20494;-78
2021/11/13 06:03:46;;;;;;;45.85;23.20;;;7.70;99.90;;;;;;5035622;28;20477;-79
2021/11/13 06:06:11;;;;;;;44.23;22.50;;;7.70;99.60;;;;;;5034836;28;20788;-79
2021/11/13 06:08:37;;;;;;;47.30;24.50;;;7.70;99.90;;;;;;5036669;28;20458;-80
2021/11/13 06:11:03;;;;;;;49.00;23.30;;;7.70;99.90;;;;;;5030998;28;20862;-79
2021/11/13 06:13:28;;;;;;;45.13;24.10;;;7.60;99.90;;;;;;5012067;28;20509;-78
2021/11/13 06:15:54;;;;;;;45.47;24.00;;;7.70;99.90;;;;;;5012396;28;20467;-76
2021/11/13 06:18:20;;;;;;;41.87;24.23;;;7.70;99.90;;;;;;5021344;28;20406;-77
2021/11/13 06:20:45;;;;;;;45.25;22.90;;;7.80;99.90;;;;;;5032459;28;20399;-78
2021/11/13 06:23:11;;;;;;;42.40;23.50;;;7.80;99.90;;;;;;5031064;28;20457;-78
2021/11/13 06:25:37;;;;;;;49.60;24.10;;;7.70;99.90;;;;;;5033829;28;20744;-78
2021/11/13 06:28:03;;;;;;;53.08;25.38;;;7.80;99.90;;;;;;5034156;28;20391;-77
2021/11/13 06:30:28;;;;;;;50.50;24.80;;;7.80;99.90;;;;;;5034462;28;20392;-77
2021/11/13 06:32:55;;;;;;;54.17;25.73;;;7.80;99.20;;;;;;5031860;28;20407;-78
2021/11/13 06:35:21;;;;;;;42.05;24.35;;;7.80;99.90;;;;;;5019490;28;20402;-79
2021/11/13 06:37:47;;;;;;;48.85;24.60;;;7.80;99.90;;;;;;5013572;28;20491;-78
2021/11/13 06:40:15;;;;;;;49.58;24.90;;;7.80;99.90;;;;;;5012392;28;20500;-78
2021/11/13 06:42:41;;;;;;;47.75;23.92;;;7.80;99.90;;;;;;5010157;28;20492;-78
2021/11/13 06:45:09;;;;;;;48.00;24.05;;;7.80;99.90;;;;;;5011885;28;20389;-77
2021/11/13 06:47:35;;;;;;;43.60;23.73;;;7.80;99.90;;;;;;5012801;28;20490;-78
2021/11/13 06:50:01;;;;;;;44.40;23.40;;;7.90;99.90;;;;;;5010797;28;20381;-78
2021/11/13 06:52:26;;;;;;;48.33;24.70;;;7.80;99.90;;;;;;5010422;28;20381;-78
2021/11/13 06:54:52;;;;;;;49.37;24.20;;;7.90;99.90;;;;;;5035278;28;20441;-77
2021/11/13 06:57:18;;;;;;;49.30;24.20;;;7.90;99.90;;;;;;5038301;28;20459;-79
2021/11/13 06:59:43;;;;;;;45.95;23.88;;;7.90;99.90;;;;;;5011550;28;20480;-77
2021/11/13 07:02:09;;;;;;;47.47;23.45;;;7.90;99.90;;;;;;5033572;28;20434;-76
2021/11/13 07:04:35;;;;;;;47.97;23.83;;;8.00;99.90;;;;;;5036605;28;20391;-77
2021/11/13 07:07:01;;;;;;;44.63;22.73;;;8.00;99.90;;;;;;5035617;28;20400;-78
2021/11/13 07:09:27;;;;;;;43.83;23.10;;;8.00;99.90;;;;;;5038429;28;20458;-78
2021/11/13 07:11:52;;;;;;;46.72;24.13;;;8.00;99.90;;;;;;5024663;28;20909;-79
2021/11/13 07:14:18;;;;;;;45.72;22.90;;;8.10;99.90;;;;;;5018690;28;20399;-79
2021/11/13 07:16:44;;;;;;;47.15;23.25;;;8.10;99.90;;;;;;5018517;28;20427;-79
2021/11/13 07:19:10;;;;;;;43.80;23.40;;;8.10;99.90;;;;;;5017170;28;20424;-78
2021/11/13 07:21:37;;;;;;;40.57;22.23;;;8.10;99.00;;;;;;5024337;28;20781;-77
2021/11/13 07:24:03;;;;;;;43.35;22.63;;;8.10;98.20;;;;;;5034129;28;20481;-79
2021/11/13 07:26:29;;;;;;;44.70;23.10;;;8.20;97.90;;;;;;5033524;28;20481;-78
2021/11/13 07:29:01;;;;;;;43.13;22.90;;;8.20;98.00;;;;;;5034645;28;20379;-78
2021/11/13 07:31:27;;;;;;;48.10;23.73;;;8.20;99.00;;;;;;5032458;28;20399;-78
2021/11/13 07:33:54;;;;;;;45.08;22.50;;;8.20;98.50;;;;;;5026324;28;20763;-78
2021/11/13 07:36:20;;;;;;;42.67;22.45;;;8.30;97.70;;;;;;5039627;28;20803;-79
2021/11/13 07:38:46;;;;;;;40.33;22.08;;;8.30;97.80;;;;;;5033315;28;20448;-78
2021/11/13 07:41:12;;;;;;;45.60;23.38;;;8.30;97.70;;;;;;5033225;28;20493;-78
2021/11/13 07:43:39;;;;;;;43.53;22.55;;;8.30;97.80;;;;;;5028035;28;20424;-78
2021/11/13 07:46:05;;;;;;;41.70;21.92;;;8.30;97.70;;;;;;5014447;28;20400;-78
2021/11/13 07:48:30;;;;;;;43.17;21.88;;;8.40;97.80;;;;;;5026217;28;20395;-77
2021/11/13 07:50:57;;;;;;;43.10;22.67;;;8.40;97.00;;;;;;5034795;28;20391;-78
2021/11/13 07:53:23;;;;;;;39.25;20.13;;;8.40;97.40;;;;;;5033277;28;20391;-78
2021/11/13 07:55:48;;;;;;;43.08;20.73;;;8.40;97.20;;;;;;5055503;28;20950;-78
2021/11/13 07:58:16;;;;;;;42.70;20.67;;;8.50;96.50;;;;;;5047778;28;20884;-79
2021/11/13 08:00:42;;;;;;;38.00;19.80;;;8.60;95.30;;;;;;5038252;28;20395;-79
2021/11/13 08:03:08;;;;;;;38.80;20.08;;;8.70;94.10;;;;;;5033746;28;20449;-80
2021/11/13 08:05:33;;;;;;;37.10;20.50;;;8.70;94.80;;;;;;5044633;28;20960;-78
2021/11/13 08:07:59;;;;;;;39.97;20.23;;;8.80;94.90;;;;;;5041978;28;20391;-78
2021/11/13 08:10:25;;;;;;;37.60;19.80;;;8.80;92.50;;;;;;5056660;28;20388;-81
2021/11/13 08:12:51;;;;;;;39.17;19.63;;;8.90;91.50;;;;;;5041458;28;20483;-81
2021/11/13 08:15:17;;;;;;;34.33;18.17;;;8.80;91.30;;;;;;5039420;28;20820;-80
2021/11/13 08:17:44;;;;;;;34.40;17.98;;;8.80;92.00;;;;;;5040491;28;20399;-85
2021/11/13 08:20:11;;;;;;;36.65;18.65;;;8.80;91.50;;;;;;5036717;28;20502;-81
2021/11/13 08:22:37;;;;;;;34.08;18.50;;;8.80;91.50;;;;;;5040344;28;20410;-80
2021/11/13 08:25:06;;;;;;;32.50;17.23;;;8.70;92.60;;;;;;5050634;28;20383;-81
2021/11/13 08:27:31;;;;;;;32.58;18.40;;;8.80;91.80;;;;;;5041924;28;20434;-77
2021/11/13 08:29:57;;;;;;;34.00;16.40;;;8.80;91.90;;;;;;5031372;28;20655;-79
2021/11/13 08:32:22;;;;;;;34.10;18.23;;;8.80;93.50;;;;;;5036462;28;20394;-81
2021/11/13 08:34:48;;;;;;;36.80;18.30;;;8.90;91.80;;;;;;5023786;28;20401;-80
2021/11/13 08:37:14;;;;;;;31.23;16.63;;;8.90;91.90;;;;;;5040889;28;20868;-81
2021/11/13 08:39:39;;;;;;;33.00;18.03;;;8.90;91.50;;;;;;5045847;28;20395;-80
2021/11/13 08:42:14;;;;;;;30.00;16.40;;;8.90;90.80;;;;;;5044708;28;20411;-79
2021/11/13 08:44:45;;;;;;;32.53;17.70;;;8.90;91.10;;;;;;5030520;28;20500;-80
2021/11/13 08:47:12;;;;;;;28.08;17.13;;;8.90;91.80;;;;;;5041420;28;20445;-79
2021/11/13 08:49:43;;;;;;;26.38;16.55;;;8.90;91.70;;;;;;5040714;28;20391;-79
2021/11/13 08:52:10;;;;;;;31.08;17.30;;;9.00;90.80;;;;;;5040790;28;20949;-79
2021/11/13 08:54:37;;;;;;;30.40;17.65;;;9.00;90.90;;;;;;5041203;28;20781;-78
2021/11/13 08:57:03;;;;;;;33.80;17.27;;;9.10;91.60;;;;;;5034560;28;20390;-78
2021/11/13 08:59:30;;;;;;;37.13;20.90;;;9.10;90.10;;;;;;5037303;28;20393;-77
2021/11/13 09:01:58;;;;;;;35.88;19.38;;;9.20;88.40;;;;;;5021474;28;20458;-78
2021/11/13 09:04:23;;;;;;;32.15;17.45;;;9.20;89.10;;;;;;5033507;28;20387;-79
2021/11/13 09:06:49;;;;;;;27.87;16.57;;;9.30;89.10;;;;;;5034875;28;20415;-78
2021/11/13 09:09:15;;;;;;;29.57;16.63;;;9.40;86.80;;;;;;5041185;28;20400;-78
2021/11/13 09:11:42;;;;;;;34.13;17.60;;;9.50;87.10;;;;;;5037942;28;20436;-78
2021/11/13 09:14:11;;;;;;;33.30;17.52;;;9.60;85.90;;;;;;5036161;28;20411;-78
2021/11/13 09:16:37;;;;;;;28.33;16.77;;;9.60;84.10;;;;;;5013499;28;20447;-78
2021/11/13 09:19:03;;;;;;;28.55;16.67;;;9.60;82.90;;;;;;5033967;28;20851;-77
2021/11/13 09:21:31;;;;;;;31.73;16.67;;;9.70;82.70;;;;;;5028558;28;20402;-76
2021/11/13 09:23:58;;;;;;;32.03;17.60;;;9.70;82.40;;;;;;5038831;28;20421;-75
2021/11/13 09:26:23;;;;;;;29.17;17.03;;;9.70;84.10;;;;;;5031315;28;20398;-74
2021/11/13 09:28:49;;;;;;;28.60;16.40;;;9.80;83.60;;;;;;5025724;28;20399;-75
2021/11/13 09:31:16;;;;;;;30.45;17.17;;;9.80;82.50;;;;;;5036329;28;20423;-74
2021/11/13 09:33:42;;;;;;;27.33;16.08;;;9.80;82.50;;;;;;5021950;28;20483;-75
2021/11/13 09:36:07;;;;;;;27.90;16.77;;;9.90;81.70;;;;;;5023003;28;20869;-75
2021/11/13 09:38:40;;;;;;;27.02;15.38;;;9.90;83.00;;;;;;5039864;28;20815;-79
2021/11/13 09:41:06;;;;;;;27.40;15.27;;;9.90;83.50;;;;;;5035651;28;20419;-79
2021/11/13 09:43:34;;;;;;;24.30;14.88;;;10.00;82.70;;;;;;5030785;28;20871;-79
2021/11/13 09:46:02;;;;;;;30.35;15.18;;;10.00;82.30;;;;;;5030786;28;20399;-80
2021/11/13 09:48:29;;;;;;;25.60;14.82;;;10.10;81.20;;;;;;5026198;28;20683;-80
2021/11/13 09:50:55;;;;;;;25.00;15.77;;;10.10;80.30;;;;;;5046408;28;20395;-78
2021/11/13 09:53:24;;;;;;;26.75;14.35;;;10.20;80.50;;;;;;5045859;28;20463;-79
2021/11/13 09:55:53;;;;;;;27.52;15.57;;;10.30;79.20;;;;;;5041164;28;20405;-79
2021/11/13 09:58:19;;;;;;;26.83;15.45;;;10.30;78.50;;;;;;5041709;28;20425;-79
2021/11/13 10:00:46;;;;;;;27.27;14.68;;;10.30;78.20;;;;;;5037093;28;20417;-80
2021/11/13 10:03:19;;;;;;;24.30;15.43;;;10.40;78.40;;;;;;5034390;28;20697;-80
2021/11/13 10:05:53;;;;;;;24.45;14.38;;;10.40;78.40;;;;;;5036580;28;20416;-79
2021/11/13 10:08:20;;;;;;;24.30;15.45;;;10.40;78.80;;;;;;5028586;28;20424;-75
2021/11/13 10:10:47;;;;;;;23.10;13.80;;;10.50;77.60;;;;;;5026595;28;20391;-74
2021/11/13 10:13:33;;;;;;;22.65;13.90;;;10.60;76.90;;;;;;5030213;28;20895;-73
2021/11/13 10:16:09;;;;;;;22.58;14.13;;;10.80;74.40;;;;;;5012173;28;20400;-75
2021/11/13 10:18:39;;;;;;;21.55;13.85;;;11.00;74.20;;;;;;5026560;28;20406;-77
2021/11/13 10:21:18;;;;;;;22.15;13.10;;;11.40;71.70;;;;;;5030945;28;20403;-75
2021/11/13 10:23:49;;;;;;;19.15;12.40;;;11.60;67.10;;;;;;5024707;28;20443;-74
2021/11/13 10:26:24;;;;;;;21.05;12.75;;;11.70;66.10;;;;;;5032630;28;20393;-75
2021/11/13 10:28:57;;;;;;;22.92;13.40;;;11.80;64.30;;;;;;5025682;28;20436;-76
2021/11/13 10:31:32;;;;;;;27.50;13.30;;;11.80;62.10;;;;;;5030444;28;20414;-76
2021/11/13 10:34:01;;;;;;;21.95;14.55;;;11.90;61.80;;;;;;5031871;28;20403;-77
2021/11/13 10:36:30;;;;;;;18.83;12.88;;;11.90;61.10;;;;;;5026151;28;20396;-75
2021/11/13 10:39:03;;;;;;;20.33;12.30;;;11.90;61.60;;;;;;5028571;28;20828;-77
2021/11/13 10:41:29;;;;;;;18.93;12.33;;;11.80;62.70;;;;;;5041317;28;20410;-76
2021/11/13 10:43:55;;;;;;;19.08;12.73;;;11.60;64.20;;;;;;5040121;28;20902;-77
2021/11/13 10:46:24;;;;;;;19.90;13.15;;;11.50;66.20;;;;;;5042878;28;20395;-75
2021/11/13 10:48:55;;;;;;;25.42;14.25;;;11.30;68.00;;;;;;5044926;28;20408;-77
2021/11/13 10:51:26;;;;;;;21.85;13.30;;;11.20;70.60;;;;;;5034055;28;20412;-76
2021/11/13 10:53:52;;;;;;;21.02;13.70;;;11.10;72.60;;;;;;5059823;28;20393;-74
2021/11/13 10:56:19;;;;;;;20.77;12.32;;;11.00;75.30;;;;;;5050363;28;20418;-74
2021/11/13 10:58:53;;;;;;;22.05;13.48;;;11.00;75.60;;;;;;5049733;28;20406;-74
2021/11/13 11:01:48;;;;;;;20.15;13.00;;;10.90;77.40;;;;;;5044605;28;20407;-76
2021/11/13 11:04:13;;;;;;;20.77;13.63;;;10.90;79.10;;;;;;5027685;28;20439;-76
2021/11/13 11:06:43;;;;;;;22.47;13.20;;;11.00;78.10;;;;;;5035720;28;20906;-76
2021/11/13 11:09:20;;;;;;;21.50;13.70;;;10.90;80.10;;;;;;5028529;28;20445;-77
2021/11/13 11:11:47;;;;;;;24.42;14.35;;;11.00;80.00;;;;;;5044753;28;20398;-75
2021/11/13 11:14:17;;;;;;;22.25;13.25;;;11.00;80.20;;;;;;5031755;28;20407;-75
2021/11/13 11:16:46;;;;;;;24.80;13.40;;;11.00;80.70;;;;;;5025965;28;20451;-76
2021/11/13 11:19:17;;;;;;;19.98;12.77;;;11.10;80.70;;;;;;5030546;28;20862;-76
2021/11/13 11:21:59;;;;;;;20.10;13.18;;;11.10;81.10;;;;;;5029248;28;20553;-76
2021/11/13 11:24:28;;;;;;;20.27;13.35;;;11.00;81.30;;;;;;5017252;28;20392;-76
2021/11/13 11:27:01;;;;;;;18.58;12.43;;;11.00;81.80;;;;;;5014604;28;20878;-76
2021/11/13 11:29:30;;;;;;;18.95;13.10;;;11.10;82.00;;;;;;5028452;28;20414;-77
2021/11/13 11:32:00;;;;;;;20.23;12.70;;;11.10;80.50;;;;;;5035576;28;20375;-76
2021/11/13 11:34:30;;;;;;;24.38;13.40;;;11.10;80.20;;;;;;5033934;28;20383;-78
2021/11/13 11:36:57;;;;;;;19.73;13.30;;;11.00;80.50;;;;;;5024445;28;20391;-76
2021/11/13 11:39:25;;;;;;;23.25;13.43;;;11.10;80.20;;;;;;5033430;28;20752;-76
2021/11/13 11:41:52;;;;;;;17.95;12.75;;;11.00;81.70;;;;;;5018138;28;20416;-77
2021/11/13 11:44:19;;;;;;;23.25;12.45;;;11.10;80.70;;;;;;5026824;28;20396;-79
2021/11/13 11:46:45;;;;;;;19.58;13.63;;;11.10;80.40;;;;;;5019487;28;20396;-75
2021/11/13 11:49:13;;;;;;;18.58;13.30;;;11.20;81.80;;;;;;5020920;28;20391;-76
2021/11/13 11:51:40;;;;;;;24.88;13.05;;;11.20;80.20;;;;;;5033015;28;20458;-76
2021/11/13 11:54:10;;;;;;;19.20;12.20;;;11.40;80.60;;;;;;5028591;28;20419;-77
2021/11/13 11:56:36;;;;;;;19.55;12.85;;;11.50;78.40;;;;;;5052034;28;20535;-77
2021/11/13 11:59:05;;;;;;;19.52;11.70;;;11.50;76.90;;;;;;5050214;28;20403;-76
2021/11/13 12:01:33;;;;;;;17.95;11.85;;;11.50;77.10;;;;;;5036512;28;20517;-76
2021/11/13 12:04:10;;;;;;;18.48;12.50;;;11.50;78.50;;;;;;5042500;28;20470;-77
2021/11/13 12:06:56;;;;;;;17.35;11.73;;;11.60;77.60;;;;;;5038770;28;20398;-77
2021/11/13 12:09:27;;;;;;;18.85;11.60;;;11.80;76.00;;;;;;5030840;28;20384;-75
2021/11/13 12:12:21;;;;;;;19.60;11.93;;;12.10;71.10;;;;;;5029376;28;20438;-77
2021/11/13 12:14:47;;;;;;;16.00;11.68;;;12.20;66.80;;;;;;5050359;28;20389;-75
2021/11/13 12:17:33;;;;;;;16.90;11.50;;;12.20;67.60;;;;;;5053371;28;20849;-76
2021/11/13 12:20:05;;;;;;;18.40;12.30;;;12.10;68.90;;;;;;5041748;28;20399;-77
2021/11/13 12:22:42;;;;;;;24.27;12.82;;;12.00;70.20;;;;;;5029951;28;20408;-77
2021/11/13 12:25:31;;;;;;;21.67;12.30;;;11.80;71.60;;;;;;5041191;28;20383;-75
2021/11/13 12:28:21;;;;;;;23.90;12.65;;;11.80;72.80;;;;;;5038242;28;20404;-76
2021/11/13 12:30:55;;;;;;;19.20;13.13;;;11.60;75.30;;;;;;5042593;28;20395;-77
2021/11/13 12:33:26;;;;;;;20.55;13.75;;;11.50;77.40;;;;;;5043371;28;20478;-77
2021/11/13 12:36:01;;;;;;;22.20;13.10;;;11.50;78.90;;;;;;5037208;28;20410;-75
2021/11/13 12:38:44;;;;;;;19.20;13.40;;;11.50;80.00;;;;;;5034000;28;20395;-76